Archival Weather

Chicago O'Hare International

Chicago, Illinois (KORD)

Report from: Friday, May 26, 2023 9:51 PM CDT
Current time: Saturday, July 13, 2024 8:20 PM CDT

Current weather – Weather history – Daily summaries
Weather forecast

Temperature13.3°C (55.9°F)
Dew point-3.9°C (25.0°F)
Winds 9 kts (4.6 m/s, 10.4 mph) Northeast (50°)
Visibility10 mi. (16.1 km)
Clouds Few clouds 25,000 ft. (7,620 m)
Scattered clouds 30,000 ft. (9,144 m)
Altimeter30.29 in.Hg (1026 mB)
Relative humidity30 %
Density altitude-549 ft. (-167 m)
Sea-level pressure102.6 kPa (1026 mB, 30.29 in.Hg)
Remarks Automated weather observing station with precipitation discriminator
Pressure rising more quickly
Flight conditions Visual Meteorological Conditions
Raw dataKORD 270251Z 05009KT 10SM FEW250 SCT300 13/M04 A3029 RMK AO2 SLP258 T01331039 53008
An error has occurred. This application may no longer respond until reloaded. Reload 🗙